createdAt,value
2018-03-02T00:00:16.524Z,14.40
2018-03-02T00:02:42.706Z,16.33
2018-03-02T00:05:10.320Z,16.55
2018-03-02T00:07:36.508Z,16.37
2018-03-02T00:10:02.729Z,17.75
2018-03-02T00:12:29.056Z,16.58
2018-03-02T00:14:55.515Z,15.93
2018-03-02T00:17:22.103Z,14.38
2018-03-02T00:19:49.095Z,14.13
2018-03-02T00:22:15.633Z,18.62
2018-03-02T00:24:41.869Z,17.90
2018-03-02T00:27:08.263Z,12.80
2018-03-02T00:29:34.485Z,19.48
2018-03-02T00:32:00.727Z,21.17
2018-03-02T00:34:26.867Z,16.70
2018-03-02T00:36:53.023Z,17.12
2018-03-02T00:39:19.200Z,15.32
2018-03-02T00:41:46.132Z,17.15
2018-03-02T00:44:12.337Z,15.90
2018-03-02T00:46:38.553Z,18.55
2018-03-02T00:49:04.739Z,18.10
2018-03-02T00:51:30.950Z,18.35
2018-03-02T00:53:57.132Z,14.75
2018-03-02T00:56:23.600Z,15.20
2018-03-02T00:58:50.475Z,16.50
2018-03-02T01:01:16.675Z,18.65
2018-03-02T01:03:42.847Z,17.50
2018-03-02T01:06:09.037Z,17.58
2018-03-02T01:08:35.255Z,14.55
2018-03-02T01:11:01.399Z,17.77
2018-03-02T01:13:27.605Z,17.95
2018-03-02T01:15:53.794Z,16.52
2018-03-02T01:18:19.945Z,18.27
2018-03-02T01:20:46.102Z,17.10
2018-03-02T01:23:12.222Z,18.15
2018-03-02T01:25:38.363Z,18.23
2018-03-02T01:28:05.291Z,16.80
2018-03-02T01:30:31.419Z,19.23
2018-03-02T01:32:57.542Z,18.10
2018-03-02T01:35:23.738Z,16.98
2018-03-02T01:37:49.930Z,19.15
2018-03-02T01:40:16.107Z,17.77
2018-03-02T01:42:42.277Z,16.40
2018-03-02T01:45:08.956Z,18.00
2018-03-02T01:47:35.840Z,21.37
2018-03-02T01:50:01.993Z,17.90
2018-03-02T01:52:28.229Z,18.15
2018-03-02T01:54:54.364Z,16.65
2018-03-02T01:57:20.552Z,16.50
2018-03-02T01:59:46.760Z,16.85
2018-03-02T02:02:12.904Z,16.42
2018-03-02T02:04:39.066Z,17.65
2018-03-02T02:07:05.221Z,17.70
2018-03-02T02:09:32.100Z,14.52
2018-03-02T02:11:58.299Z,19.08
2018-03-02T02:14:25.299Z,19.73
2018-03-02T02:16:51.400Z,17.35
2018-03-02T02:19:17.553Z,17.83
2018-03-02T02:21:44.450Z,19.62
2018-03-02T02:24:10.647Z,17.45
2018-03-02T02:26:36.915Z,20.58
2018-03-02T02:29:03.052Z,18.50
2018-03-02T02:31:29.213Z,18.02
2018-03-02T02:33:55.347Z,14.35
2018-03-02T02:36:21.502Z,18.00
2018-03-02T02:38:47.672Z,18.60
2018-03-02T02:41:13.857Z,20.23
2018-03-02T02:43:40.076Z,18.65
2018-03-02T02:46:06.273Z,23.65
2018-03-02T02:48:32.645Z,19.30
2018-03-02T02:50:58.914Z,19.25
2018-03-02T02:53:25.823Z,18.70
2018-03-02T02:55:51.960Z,18.45
2018-03-02T02:58:18.221Z,21.60
2018-03-02T03:00:44.495Z,18.62
2018-03-02T03:03:10.651Z,18.73
2018-03-02T03:05:36.846Z,19.35
2018-03-02T03:08:03.799Z,17.15
2018-03-02T03:10:30.182Z,23.30
2018-03-02T03:12:57.274Z,20.25
2018-03-02T03:15:23.787Z,21.08
2018-03-02T03:17:49.935Z,22.17
2018-03-02T03:20:16.115Z,19.02
2018-03-02T03:22:42.305Z,20.10
2018-03-02T03:25:08.510Z,20.80
2018-03-02T03:27:34.687Z,17.25
2018-03-02T03:30:00.867Z,19.67
2018-03-02T03:32:27.088Z,19.92
2018-03-02T03:34:53.272Z,21.00
2018-03-02T03:37:19.444Z,20.60
2018-03-02T03:39:45.627Z,20.40
2018-03-02T03:42:11.816Z,18.60
2018-03-02T03:44:37.999Z,17.70
2018-03-02T03:47:04.171Z,16.27
2018-03-02T03:49:30.372Z,19.92
2018-03-02T03:51:56.540Z,20.60
2018-03-02T03:54:22.696Z,15.90
2018-03-02T03:56:48.843Z,20.85
2018-03-02T03:59:15.092Z,20.42
2018-03-02T04:01:41.316Z,22.85
2018-03-02T04:04:07.464Z,19.33
2018-03-02T04:06:34.375Z,21.37
2018-03-02T04:09:00.601Z,19.02
2018-03-02T04:11:26.788Z,19.70
2018-03-02T04:13:52.957Z,21.48
2018-03-02T04:16:19.192Z,22.35
2018-03-02T04:18:45.378Z,20.75
2018-03-02T04:21:11.554Z,20.27
2018-03-02T04:23:38.462Z,16.77
2018-03-02T04:26:04.616Z,21.62
2018-03-02T04:28:30.800Z,20.10
2018-03-02T04:30:56.961Z,21.52
2018-03-02T04:33:23.195Z,16.70
2018-03-02T04:35:49.357Z,23.30
2018-03-02T04:38:15.546Z,20.70
2018-03-02T04:40:41.676Z,21.45
2018-03-02T04:43:07.853Z,19.05
2018-03-02T04:45:34.077Z,19.55
2018-03-02T04:48:00.257Z,22.90
2018-03-02T04:50:26.571Z,20.45
2018-03-02T04:52:52.774Z,21.58
2018-03-02T04:55:18.955Z,20.60
2018-03-02T04:57:45.904Z,20.92
2018-03-02T05:00:12.835Z,17.65
2018-03-02T05:02:38.952Z,19.17
2018-03-02T05:05:05.092Z,21.85
2018-03-02T05:07:31.272Z,21.83
2018-03-02T05:09:58.217Z,20.10
2018-03-02T05:12:24.391Z,18.05
2018-03-02T05:14:50.737Z,20.30
2018-03-02T05:17:16.872Z,14.80
2018-03-02T05:19:43.025Z,22.48
2018-03-02T05:22:09.957Z,19.95
2018-03-02T05:24:36.856Z,18.20
2018-03-02T05:27:03.012Z,19.77
2018-03-02T05:29:30.338Z,21.90
2018-03-02T05:31:56.531Z,22.15
2018-03-02T05:34:22.789Z,19.52
2018-03-02T05:36:49.057Z,19.35
2018-03-02T05:39:15.363Z,21.80
2018-03-02T05:41:42.312Z,22.87
2018-03-02T05:44:08.485Z,23.10
2018-03-02T05:46:34.624Z,20.80
2018-03-02T05:49:01.533Z,22.20
2018-03-02T05:51:27.728Z,20.27
2018-03-02T05:53:53.902Z,21.95
2018-03-02T05:56:20.128Z,19.80
2018-03-02T05:58:46.359Z,21.50
2018-03-02T06:01:12.611Z,22.90
2018-03-02T06:03:38.917Z,23.27
2018-03-02T06:06:05.951Z,22.00
2018-03-02T06:08:32.881Z,22.67
2018-03-02T06:10:59.051Z,20.75
2018-03-02T06:13:25.525Z,24.02
2018-03-02T06:15:52.465Z,21.20
2018-03-02T06:18:18.669Z,23.15
2018-03-02T06:20:44.827Z,22.37
2018-03-02T06:23:10.988Z,27.40
2018-03-02T06:25:37.300Z,27.37
2018-03-02T06:28:04.432Z,28.70
2018-03-02T06:30:30.706Z,26.80
2018-03-02T06:32:56.865Z,32.80
2018-03-02T06:35:23.131Z,26.52
2018-03-02T06:37:49.400Z,20.52
2018-03-02T06:40:16.351Z,22.40
2018-03-02T06:42:42.529Z,23.23
2018-03-02T06:45:08.722Z,16.08
2018-03-02T06:47:34.924Z,19.20
2018-03-02T06:50:01.200Z,22.77
2018-03-02T06:52:27.505Z,20.37
2018-03-02T06:54:54.142Z,19.90
2018-03-02T06:57:20.397Z,19.17
2018-03-02T06:59:46.574Z,21.30
2018-03-02T07:02:13.485Z,24.67
2018-03-02T07:04:39.645Z,23.23
2018-03-02T07:07:05.828Z,18.65
2018-03-02T07:09:32.018Z,17.60
2018-03-02T07:11:58.188Z,22.10
2018-03-02T07:14:25.154Z,22.30
2018-03-02T07:16:51.305Z,23.75
2018-03-02T07:19:17.533Z,21.20
2018-03-02T07:21:43.683Z,25.10
2018-03-02T07:24:10.073Z,25.48
2018-03-02T07:26:36.205Z,23.80
2018-03-02T07:29:02.340Z,22.15
2018-03-02T07:31:28.519Z,22.85
2018-03-02T07:33:55.574Z,25.40
2018-03-02T07:36:22.489Z,24.87
2018-03-02T07:38:48.705Z,17.60
2018-03-02T07:41:14.882Z,22.13
2018-03-02T07:43:41.075Z,24.25
2018-03-02T07:46:07.243Z,23.60
2018-03-02T07:48:33.458Z,23.52
2018-03-02T07:51:00.081Z,17.12
2018-03-02T07:53:27.045Z,23.75
2018-03-02T07:55:53.253Z,25.60
2018-03-02T07:58:19.456Z,21.77
2018-03-02T08:00:45.633Z,21.58
2018-03-02T08:03:11.824Z,17.23
2018-03-02T08:52:40.055Z,25.67
2018-03-02T08:55:06.210Z,22.85
2018-03-02T08:57:32.405Z,25.73
2018-03-02T08:59:58.597Z,24.52
2018-03-02T09:02:24.776Z,25.80
2018-03-02T09:04:51.683Z,24.83
2018-03-02T09:07:17.964Z,24.85
2018-03-02T09:09:44.164Z,24.60
2018-03-02T09:12:10.370Z,23.98
2018-03-02T09:14:36.516Z,25.37
2018-03-02T09:19:55.613Z,25.00
2018-03-02T09:22:22.222Z,26.80
2018-03-02T09:24:48.506Z,26.02
2018-03-02T09:27:14.657Z,26.67
2018-03-02T09:29:40.839Z,25.50
2018-03-02T09:32:07.174Z,26.67
2018-03-02T09:34:33.682Z,27.98
2018-03-02T09:37:00.518Z,24.77
2018-03-02T09:39:26.789Z,24.23
2018-03-02T09:41:53.294Z,22.27
2018-03-02T09:44:19.907Z,23.05
2018-03-02T09:46:46.519Z,25.85
2018-03-02T09:49:13.076Z,23.60
2018-03-02T09:51:39.653Z,25.15
2018-03-02T09:54:06.280Z,25.20
2018-03-02T09:56:33.497Z,25.52
2018-03-02T09:58:59.764Z,26.10
2018-03-02T10:01:26.039Z,25.52
2018-03-02T10:03:52.229Z,25.08
2018-03-02T10:06:18.489Z,25.88
2018-03-02T10:08:44.737Z,26.65
2018-03-02T10:11:10.931Z,29.30
2018-03-02T10:13:37.098Z,31.85
2018-03-02T10:16:04.332Z,25.30
2018-03-02T10:18:30.557Z,27.67
2018-03-02T10:20:56.738Z,27.40
2018-03-02T10:23:22.954Z,27.42
2018-03-02T10:25:49.196Z,27.40
2018-03-02T10:28:15.636Z,25.00
2018-03-02T10:30:41.836Z,27.60
2018-03-02T10:33:08.079Z,24.58
2018-03-02T10:35:55.559Z,25.62
2018-03-02T10:38:22.086Z,29.10
2018-03-02T10:40:48.351Z,23.05
2018-03-02T10:43:18.674Z,26.75
2018-03-02T10:45:45.811Z,27.83
2018-03-02T10:48:11.968Z,26.60
2018-03-02T10:50:38.143Z,25.92
2018-03-02T10:53:04.311Z,27.05
2018-03-02T10:55:30.501Z,25.73
2018-03-02T10:57:56.641Z,28.10
2018-03-02T11:00:28.910Z,26.35
2018-03-02T11:02:56.028Z,28.08
2018-03-02T11:05:22.352Z,28.38
2018-03-02T11:07:49.426Z,30.88
2018-03-02T11:10:16.697Z,30.40
2018-03-02T11:12:43.608Z,29.73
2018-03-02T11:15:09.776Z,27.90
2018-03-02T11:17:35.923Z,28.62
2018-03-02T11:20:02.153Z,26.67
2018-03-02T11:22:28.303Z,27.40
2018-03-02T11:24:54.450Z,26.87
2018-03-02T11:27:21.383Z,30.60
2018-03-02T11:29:47.556Z,26.20
2018-03-02T11:32:14.450Z,27.10
2018-03-02T11:34:40.632Z,28.98
2018-03-02T11:37:06.831Z,27.50
2018-03-02T11:39:33.099Z,27.33
2018-03-02T11:42:00.151Z,27.92
2018-03-02T11:44:26.786Z,26.10
2018-03-02T11:46:53.166Z,27.92
2018-03-02T11:49:19.421Z,25.93
2018-03-02T11:51:46.799Z,29.45
2018-03-02T11:54:13.113Z,26.57
2018-03-02T11:56:39.385Z,26.55
2018-03-02T11:59:06.331Z,26.20
2018-03-02T12:01:32.615Z,24.42
2018-03-02T12:03:58.887Z,26.75
2018-03-02T12:06:25.689Z,26.12
2018-03-02T12:08:52.588Z,22.77
2018-03-02T12:11:18.841Z,26.80
2018-03-02T12:13:45.381Z,23.52
2018-03-02T12:16:12.615Z,27.05
2018-03-02T12:18:38.782Z,24.60
2018-03-02T12:21:05.746Z,25.75
2018-03-02T12:23:31.994Z,26.27
2018-03-02T12:25:58.215Z,27.53
2018-03-02T12:28:24.413Z,25.48
2018-03-02T12:30:50.609Z,26.30
2018-03-02T12:33:16.839Z,26.80
2018-03-02T12:35:43.053Z,24.90
2018-03-02T12:38:09.316Z,27.42
2018-03-02T12:40:35.516Z,26.40
2018-03-02T12:43:02.537Z,23.75
2018-03-02T12:45:28.746Z,26.62
2018-03-02T12:47:55.648Z,24.97
2018-03-02T12:50:21.802Z,27.43
2018-03-02T12:52:47.946Z,27.00
2018-03-02T12:55:14.272Z,25.90
2018-03-02T12:57:40.362Z,28.43
2018-03-02T13:00:06.553Z,28.73
2018-03-02T13:02:33.007Z,28.93
2018-03-02T13:04:59.619Z,30.27
2018-03-02T13:07:28.053Z,27.80
2018-03-02T13:09:54.310Z,29.50
2018-03-02T13:12:20.925Z,28.30
2018-03-02T13:14:48.336Z,27.40
2018-03-02T13:17:16.554Z,29.57
2018-03-02T13:19:42.845Z,28.97
2018-03-02T13:22:21.687Z,29.53
2018-03-02T13:24:48.433Z,28.43
2018-03-02T13:27:26.828Z,27.57
2018-03-02T13:29:53.276Z,28.37
2018-03-02T13:32:19.608Z,28.50
2018-03-02T13:34:58.473Z,28.10
2018-03-02T13:37:25.062Z,27.60
2018-03-02T13:40:03.890Z,26.80
2018-03-02T13:42:31.336Z,29.77
2018-03-02T13:44:58.400Z,27.93
2018-03-02T13:47:36.854Z,27.23
2018-03-02T13:50:06.817Z,29.40
2018-03-02T13:52:33.306Z,29.53
2018-03-02T13:55:00.636Z,27.77
2018-03-02T13:57:39.078Z,28.90
2018-03-02T14:02:51.913Z,29.03
2018-03-02T14:05:18.540Z,27.80
2018-03-02T14:07:45.923Z,31.60
2018-03-02T14:10:12.295Z,29.47
2018-03-02T14:12:38.653Z,30.02
2018-03-02T14:15:05.687Z,31.50
2018-03-02T14:17:32.236Z,27.50
2018-03-02T14:19:58.673Z,30.53
2018-03-02T14:22:24.965Z,29.80
2018-03-02T14:24:53.668Z,30.27
2018-03-02T14:27:20.132Z,27.60
2018-03-02T14:29:46.500Z,32.10
2018-03-02T14:34:45.826Z,30.13
2018-03-02T14:37:12.485Z,29.70
2018-03-02T14:39:40.164Z,30.90
2018-03-02T14:42:06.796Z,30.53
2018-03-02T14:44:33.166Z,26.80
2018-03-02T14:46:59.758Z,26.80
2018-03-02T14:49:26.969Z,28.73
2018-03-02T14:51:53.491Z,34.20
2018-03-02T14:54:19.840Z,27.58
2018-03-02T14:56:46.292Z,28.40
2018-03-02T14:59:12.764Z,29.57
2018-03-02T15:01:39.053Z,30.40
2018-03-02T15:04:05.669Z,29.70
2018-03-02T15:06:32.153Z,31.15
2018-03-02T15:08:59.128Z,30.83
2018-03-02T15:11:25.837Z,32.23
2018-03-02T15:13:52.101Z,31.33
2018-03-02T15:16:18.390Z,30.00
2018-03-02T15:18:45.020Z,27.90
2018-03-02T15:21:12.340Z,30.10
2018-03-02T15:23:38.743Z,31.17
2018-03-02T15:26:05.200Z,31.50
2018-03-02T15:28:31.508Z,30.43
2018-03-02T15:31:00.188Z,29.53
2018-03-02T15:33:27.692Z,30.53
2018-03-02T15:35:54.056Z,33.03
2018-03-02T15:38:20.350Z,31.30
2018-03-02T15:40:47.182Z,31.53
2018-03-02T16:13:57.433Z,35.10
2018-03-02T16:16:25.411Z,41.65
2018-03-02T16:18:52.943Z,35.27
2018-03-02T16:21:19.346Z,32.80
2018-03-02T16:23:46.940Z,30.92
2018-03-02T16:26:14.628Z,30.37
2018-03-02T16:28:40.912Z,34.17
2018-03-02T16:31:07.282Z,30.83
2018-03-02T16:33:33.552Z,29.42
2018-03-02T16:35:59.750Z,31.77
2018-03-02T16:38:26.924Z,29.67
2018-03-02T16:40:53.200Z,31.67
2018-03-02T16:43:19.501Z,32.10
2018-03-02T16:45:46.448Z,31.10
2018-03-02T16:48:12.760Z,35.40
2018-03-02T16:50:38.948Z,33.40
2018-03-02T16:53:05.913Z,34.58
2018-03-02T16:55:32.171Z,33.00
2018-03-02T16:57:58.436Z,32.63
2018-03-02T17:00:24.653Z,33.55
2018-03-02T17:02:52.016Z,34.28
2018-03-02T17:05:18.406Z,34.13
2018-03-02T17:17:04.792Z,31.08
2018-03-02T17:19:31.011Z,30.92
2018-03-02T17:21:57.949Z,32.78
2018-03-02T17:24:24.192Z,33.28
2018-03-02T17:26:50.404Z,34.42
2018-03-02T17:29:17.089Z,33.40
2018-03-02T17:31:43.394Z,34.42
2018-03-02T17:34:09.667Z,32.45
2018-03-02T17:36:36.397Z,35.60
2018-03-02T17:39:02.584Z,33.92
2018-03-02T17:41:28.831Z,34.22
2018-03-02T17:43:55.032Z,34.85
2018-03-02T17:46:23.483Z,35.92
2018-03-02T17:48:50.612Z,35.47
2018-03-02T17:51:16.808Z,33.58
2018-03-02T17:53:43.021Z,34.55
2018-03-02T17:56:09.231Z,36.63
2018-03-02T17:58:35.564Z,36.72
2018-03-02T18:01:01.785Z,33.80
2018-03-02T18:03:27.918Z,33.72
2018-03-02T18:05:54.097Z,35.90
2018-03-02T18:08:20.252Z,36.38
2018-03-02T18:10:47.161Z,34.67
2018-03-02T18:13:13.378Z,34.80
2018-03-02T18:15:39.606Z,34.13
2018-03-02T18:18:05.800Z,33.90
2018-03-02T18:20:31.988Z,34.83
2018-03-02T18:22:58.353Z,33.30
2018-03-02T18:25:24.511Z,35.80
2018-03-02T18:27:50.756Z,34.75
2018-03-02T18:30:17.663Z,40.97
2018-03-02T18:32:43.943Z,35.42
2018-03-02T18:35:10.169Z,32.90
2018-03-02T18:37:36.303Z,35.05
2018-03-02T18:40:02.542Z,35.85
2018-03-02T18:42:28.852Z,36.33
2018-03-02T18:44:55.033Z,32.85
2018-03-02T18:47:21.377Z,37.17
2018-03-02T18:49:47.711Z,35.05
2018-03-02T18:52:15.025Z,44.75
2018-03-02T18:54:41.318Z,39.88
2018-03-02T18:57:07.660Z,38.40
2018-03-02T18:59:33.985Z,34.50
2018-03-02T19:02:00.161Z,39.75
2018-03-02T19:04:26.354Z,38.17
2018-03-02T19:06:52.518Z,40.22
2018-03-02T19:09:18.722Z,37.97
2018-03-02T19:11:46.076Z,37.08
2018-03-02T19:14:12.249Z,38.97
2018-03-02T19:16:39.127Z,40.80
2018-03-02T19:19:05.421Z,38.17
2018-03-02T19:21:31.572Z,46.58
2018-03-02T19:23:57.728Z,40.97
2018-03-02T19:26:25.713Z,36.40
2018-03-02T19:28:52.017Z,39.35
2018-03-02T19:31:18.186Z,42.92
2018-03-02T19:33:44.357Z,44.72
2018-03-02T19:36:11.375Z,40.42
2018-03-02T19:38:37.561Z,40.60
2018-03-02T19:41:03.739Z,40.42
2018-03-02T19:43:29.867Z,35.38
2018-03-02T19:45:56.117Z,40.03
2018-03-02T19:48:23.046Z,39.75
2018-03-02T19:50:53.824Z,40.12
2018-03-02T19:53:20.097Z,42.13
2018-03-02T19:55:46.282Z,42.22
2018-03-02T19:58:12.471Z,41.35
2018-03-02T20:00:39.415Z,41.17
2018-03-02T20:03:05.568Z,42.20
2018-03-02T20:05:32.489Z,41.97
2018-03-02T20:07:58.615Z,41.72
2018-03-02T20:10:24.820Z,41.15
2018-03-02T20:12:50.968Z,45.00
2018-03-02T20:15:17.219Z,45.72
2018-03-02T20:17:43.500Z,42.85
2018-03-02T20:20:09.755Z,46.83
2018-03-02T20:22:36.747Z,47.35
2018-03-02T20:25:02.936Z,47.90
2018-03-02T20:27:29.196Z,47.17
2018-03-02T20:29:55.398Z,56.25
2018-03-02T20:34:56.670Z,51.72
2018-03-02T20:37:30.087Z,50.58
2018-03-02T20:39:56.268Z,49.03
2018-03-02T20:42:22.585Z,48.05
2018-03-02T20:44:48.796Z,49.80
2018-03-02T20:47:15.320Z,49.60
2018-03-02T20:49:42.293Z,52.25
2018-03-02T20:52:08.484Z,52.25
2018-03-02T21:03:45.018Z,53.67
2018-03-02T21:06:11.320Z,49.80
2018-03-02T21:08:37.557Z,56.08
2018-03-02T21:11:03.784Z,56.80
2018-03-02T21:13:30.025Z,55.85
2018-03-02T21:15:56.291Z,55.67
2018-03-02T21:18:22.525Z,54.15
2018-03-02T21:20:48.719Z,57.30
2018-03-02T21:23:14.880Z,57.38
2018-03-02T21:25:43.182Z,56.53
2018-03-02T21:28:09.391Z,50.70
2018-03-02T21:30:36.507Z,53.80
2018-03-02T21:33:02.825Z,55.12
2018-03-02T21:35:29.023Z,58.90
2018-03-02T21:37:55.978Z,51.20
2018-03-02T21:40:22.224Z,54.38
2018-03-02T21:42:48.464Z,57.17
2018-03-02T21:45:14.640Z,57.28
2018-03-02T21:47:40.861Z,59.70
2018-03-02T21:50:07.111Z,53.70
2018-03-02T21:52:33.341Z,52.75
2018-03-02T21:55:02.283Z,52.38
2018-03-02T21:57:28.448Z,55.47
2018-03-02T21:59:54.610Z,57.42
2018-03-02T22:02:21.687Z,58.55
2018-03-02T22:04:47.938Z,58.97
2018-03-02T22:07:14.831Z,54.95
2018-03-02T22:09:41.182Z,51.70
2018-03-02T22:12:07.424Z,51.75
2018-03-02T22:14:33.611Z,56.95
2018-03-02T22:17:01.380Z,56.08
2018-03-02T22:19:27.600Z,53.65
2018-03-02T22:21:53.805Z,58.00
2018-03-02T22:24:20.035Z,57.65
2018-03-02T22:26:46.532Z,54.70
2018-03-02T22:29:13.697Z,55.17
2018-03-02T22:31:40.500Z,54.78
2018-03-02T22:34:06.796Z,54.75
2018-03-02T22:36:34.636Z,57.42
2018-03-02T22:39:00.825Z,52.20
2018-03-02T22:41:27.774Z,57.85
2018-03-02T22:43:54.509Z,53.90
2018-03-02T22:46:20.745Z,59.65
2018-03-02T22:48:47.017Z,55.08
2018-03-02T22:51:15.409Z,56.17
2018-03-02T23:12:00.643Z,53.05
2018-03-02T23:14:26.872Z,52.10
2018-03-02T23:16:53.080Z,53.55
2018-03-02T23:19:19.272Z,55.38
2018-03-02T23:21:45.481Z,60.95
2018-03-02T23:24:11.719Z,55.70
2018-03-02T23:26:37.842Z,59.72
2018-03-02T23:29:05.282Z,56.85
2018-03-02T23:31:31.539Z,59.03
2018-03-02T23:33:57.808Z,55.60
2018-03-02T23:36:24.018Z,58.42
2018-03-02T23:38:50.204Z,55.03
2018-03-02T23:41:16.435Z,59.97
2018-03-02T23:43:42.597Z,59.63
2018-03-02T23:46:08.745Z,54.40
2018-03-02T23:48:34.949Z,59.03
2018-03-02T23:51:01.816Z,57.45
2018-03-02T23:53:27.996Z,61.08
2018-03-02T23:55:54.164Z,58.33
2018-03-02T23:58:20.306Z,60.75
